sensor_id;sensor_type;location;lat;lon;timestamp;P1;durP1;ratioP1;P2;durP2;ratioP2
10715;SDS011;5409;42.620;23.316;2023-04-30T00:01:31;9.20;;;5.22;;
10715;SDS011;5409;42.620;23.316;2023-04-30T00:03:59;9.00;;;4.10;;
10715;SDS011;5409;42.620;23.316;2023-04-30T00:06:26;4.30;;;3.90;;
10715;SDS011;5409;42.620;23.316;2023-04-30T00:08:52;5.72;;;3.83;;
10715;SDS011;5409;42.620;23.316;2023-04-30T00:11:19;6.70;;;4.22;;
10715;SDS011;5409;42.620;23.316;2023-04-30T00:13:46;6.30;;;4.32;;
10715;SDS011;5409;42.620;23.316;2023-04-30T00:16:13;8.60;;;4.45;;
10715;SDS011;5409;42.620;23.316;2023-04-30T00:18:39;3.80;;;2.92;;
10715;SDS011;5409;42.620;23.316;2023-04-30T00:21:12;6.24;;;4.54;;
10715;SDS011;5409;42.620;23.316;2023-04-30T00:23:39;7.28;;;4.80;;
10715;SDS011;5409;42.620;23.316;2023-04-30T00:26:06;5.53;;;4.35;;
10715;SDS011;5409;42.620;23.316;2023-04-30T00:28:32;6.72;;;4.43;;
10715;SDS011;5409;42.620;23.316;2023-04-30T00:30:59;6.65;;;4.22;;
10715;SDS011;5409;42.620;23.316;2023-04-30T00:33:26;8.48;;;5.38;;
10715;SDS011;5409;42.620;23.316;2023-04-30T00:35:53;5.15;;;4.57;;
10715;SDS011;5409;42.620;23.316;2023-04-30T00:38:21;7.97;;;4.47;;
10715;SDS011;5409;42.620;23.316;2023-04-30T00:40:48;5.28;;;3.63;;
10715;SDS011;5409;42.620;23.316;2023-04-30T00:43:15;7.50;;;4.50;;
10715;SDS011;5409;42.620;23.316;2023-04-30T00:45:42;5.22;;;4.55;;
10715;SDS011;5409;42.620;23.316;2023-04-30T00:48:09;6.32;;;4.80;;
10715;SDS011;5409;42.620;23.316;2023-04-30T00:50:36;5.93;;;4.13;;
10715;SDS011;5409;42.620;23.316;2023-04-30T00:53:03;7.30;;;4.38;;
10715;SDS011;5409;42.620;23.316;2023-04-30T00:55:31;5.32;;;4.53;;
10715;SDS011;5409;42.620;23.316;2023-04-30T00:57:58;8.27;;;3.90;;
10715;SDS011;5409;42.620;23.316;2023-04-30T01:00:25;7.28;;;4.50;;
10715;SDS011;5409;42.620;23.316;2023-04-30T01:02:53;4.40;;;3.22;;
10715;SDS011;5409;42.620;23.316;2023-04-30T01:05:21;4.55;;;3.63;;
10715;SDS011;5409;42.620;23.316;2023-04-30T01:07:48;6.07;;;3.00;;
10715;SDS011;5409;42.620;23.316;2023-04-30T01:10:15;4.05;;;3.55;;
10715;SDS011;5409;42.620;23.316;2023-04-30T01:12:45;3.47;;;3.10;;
10715;SDS011;5409;42.620;23.316;2023-04-30T01:15:18;6.03;;;3.20;;
10715;SDS011;5409;42.620;23.316;2023-04-30T01:17:53;3.78;;;2.97;;
10715;SDS011;5409;42.620;23.316;2023-04-30T01:20:25;3.80;;;3.08;;
10715;SDS011;5409;42.620;23.316;2023-04-30T01:22:54;8.80;;;3.03;;
10715;SDS011;5409;42.620;23.316;2023-04-30T01:25:41;3.33;;;2.72;;
10715;SDS011;5409;42.620;23.316;2023-04-30T01:28:18;5.20;;;3.35;;
10715;SDS011;5409;42.620;23.316;2023-04-30T01:30:46;3.97;;;3.03;;
10715;SDS011;5409;42.620;23.316;2023-04-30T01:33:13;6.07;;;2.92;;
10715;SDS011;5409;42.620;23.316;2023-04-30T01:35:51;3.85;;;3.53;;
10715;SDS011;5409;42.620;23.316;2023-04-30T01:38:33;3.95;;;3.25;;
10715;SDS011;5409;42.620;23.316;2023-04-30T01:41:12;3.17;;;2.85;;
10715;SDS011;5409;42.620;23.316;2023-04-30T01:43:49;4.35;;;3.38;;
10715;SDS011;5409;42.620;23.316;2023-04-30T01:46:23;5.65;;;3.60;;
10715;SDS011;5409;42.620;23.316;2023-04-30T01:48:53;7.60;;;3.58;;
10715;SDS011;5409;42.620;23.316;2023-04-30T01:51:31;4.95;;;3.45;;
10715;SDS011;5409;42.620;23.316;2023-04-30T01:54:07;5.78;;;3.13;;
10715;SDS011;5409;42.620;23.316;2023-04-30T01:56:41;3.75;;;3.00;;
10715;SDS011;5409;42.620;23.316;2023-04-30T01:59:17;5.50;;;3.20;;
10715;SDS011;5409;42.620;23.316;2023-04-30T02:01:45;4.28;;;3.05;;
10715;SDS011;5409;42.620;23.316;2023-04-30T02:04:12;3.83;;;3.38;;
10715;SDS011;5409;42.620;23.316;2023-04-30T02:06:38;3.58;;;3.28;;
10715;SDS011;5409;42.620;23.316;2023-04-30T02:09:05;4.18;;;3.40;;
10715;SDS011;5409;42.620;23.316;2023-04-30T02:11:32;5.15;;;3.28;;
10715;SDS011;5409;42.620;23.316;2023-04-30T02:13:59;3.75;;;3.25;;
10715;SDS011;5409;42.620;23.316;2023-04-30T02:16:27;5.00;;;4.03;;
10715;SDS011;5409;42.620;23.316;2023-04-30T02:18:53;5.13;;;3.85;;
10715;SDS011;5409;42.620;23.316;2023-04-30T02:21:20;5.05;;;3.95;;
10715;SDS011;5409;42.620;23.316;2023-04-30T02:23:47;4.65;;;3.47;;
10715;SDS011;5409;42.620;23.316;2023-04-30T02:26:13;5.63;;;4.32;;
10715;SDS011;5409;42.620;23.316;2023-04-30T02:28:40;6.53;;;3.92;;
10715;SDS011;5409;42.620;23.316;2023-04-30T02:31:07;5.97;;;4.57;;
10715;SDS011;5409;42.620;23.316;2023-04-30T02:33:35;5.03;;;4.50;;
10715;SDS011;5409;42.620;23.316;2023-04-30T02:36:02;9.25;;;4.28;;
10715;SDS011;5409;42.620;23.316;2023-04-30T02:38:29;5.68;;;4.20;;
10715;SDS011;5409;42.620;23.316;2023-04-30T02:40:56;6.22;;;3.95;;
10715;SDS011;5409;42.620;23.316;2023-04-30T02:43:22;6.65;;;4.45;;
10715;SDS011;5409;42.620;23.316;2023-04-30T02:45:49;5.25;;;4.53;;
10715;SDS011;5409;42.620;23.316;2023-04-30T02:48:16;5.32;;;4.20;;
10715;SDS011;5409;42.620;23.316;2023-04-30T02:50:44;8.25;;;4.75;;
10715;SDS011;5409;42.620;23.316;2023-04-30T02:53:11;6.03;;;5.00;;
10715;SDS011;5409;42.620;23.316;2023-04-30T02:55:37;5.10;;;4.00;;
10715;SDS011;5409;42.620;23.316;2023-04-30T02:58:04;6.03;;;4.18;;
10715;SDS011;5409;42.620;23.316;2023-04-30T03:00:31;10.07;;;4.72;;
10715;SDS011;5409;42.620;23.316;2023-04-30T03:02:58;5.13;;;3.58;;
10715;SDS011;5409;42.620;23.316;2023-04-30T03:05:25;5.53;;;3.92;;
10715;SDS011;5409;42.620;23.316;2023-04-30T03:07:53;5.03;;;4.32;;
10715;SDS011;5409;42.620;23.316;2023-04-30T03:10:20;6.60;;;4.15;;
10715;SDS011;5409;42.620;23.316;2023-04-30T03:12:46;4.72;;;4.25;;
10715;SDS011;5409;42.620;23.316;2023-04-30T03:15:13;6.35;;;4.68;;
10715;SDS011;5409;42.620;23.316;2023-04-30T03:17:40;5.85;;;4.18;;
10715;SDS011;5409;42.620;23.316;2023-04-30T03:20:07;11.00;;;7.30;;
10715;SDS011;5409;42.620;23.316;2023-04-30T03:22:35;4.70;;;4.30;;
10715;SDS011;5409;42.620;23.316;2023-04-30T03:25:03;5.57;;;4.05;;
10715;SDS011;5409;42.620;23.316;2023-04-30T03:27:30;7.10;;;4.85;;
10715;SDS011;5409;42.620;23.316;2023-04-30T03:29:57;6.68;;;4.28;;
10715;SDS011;5409;42.620;23.316;2023-04-30T03:32:23;5.55;;;4.75;;
10715;SDS011;5409;42.620;23.316;2023-04-30T03:34:50;6.20;;;4.20;;
10715;SDS011;5409;42.620;23.316;2023-04-30T03:37:17;5.40;;;4.60;;
10715;SDS011;5409;42.620;23.316;2023-04-30T03:39:43;5.60;;;4.50;;
10715;SDS011;5409;42.620;23.316;2023-04-30T03:42:11;5.78;;;4.43;;
10715;SDS011;5409;42.620;23.316;2023-04-30T03:44:38;7.22;;;5.05;;
10715;SDS011;5409;42.620;23.316;2023-04-30T03:47:05;6.63;;;4.00;;
10715;SDS011;5409;42.620;23.316;2023-04-30T03:49:32;4.75;;;4.22;;
10715;SDS011;5409;42.620;23.316;2023-04-30T03:51:59;6.22;;;4.75;;
10715;SDS011;5409;42.620;23.316;2023-04-30T03:54:25;8.48;;;4.50;;
10715;SDS011;5409;42.620;23.316;2023-04-30T03:56:52;8.90;;;4.95;;
10715;SDS011;5409;42.620;23.316;2023-04-30T03:59:21;5.32;;;4.35;;
10715;SDS011;5409;42.620;23.316;2023-04-30T04:01:48;6.00;;;3.72;;
10715;SDS011;5409;42.620;23.316;2023-04-30T04:04:15;6.18;;;4.55;;
10715;SDS011;5409;42.620;23.316;2023-04-30T04:06:41;7.78;;;4.78;;
10715;SDS011;5409;42.620;23.316;2023-04-30T04:09:08;6.57;;;5.10;;
10715;SDS011;5409;42.620;23.316;2023-04-30T04:11:35;5.25;;;4.50;;
10715;SDS011;5409;42.620;23.316;2023-04-30T04:14:02;4.45;;;4.00;;
10715;SDS011;5409;42.620;23.316;2023-04-30T04:16:30;6.85;;;4.88;;
10715;SDS011;5409;42.620;23.316;2023-04-30T04:18:57;5.82;;;4.47;;
10715;SDS011;5409;42.620;23.316;2023-04-30T04:21:23;7.82;;;5.40;;
10715;SDS011;5409;42.620;23.316;2023-04-30T04:23:51;7.07;;;4.80;;
10715;SDS011;5409;42.620;23.316;2023-04-30T04:26:17;6.28;;;3.97;;
10715;SDS011;5409;42.620;23.316;2023-04-30T04:28:45;10.02;;;5.30;;
10715;SDS011;5409;42.620;23.316;2023-04-30T04:31:12;7.55;;;6.20;;
10715;SDS011;5409;42.620;23.316;2023-04-30T04:33:40;9.65;;;5.55;;
10715;SDS011;5409;42.620;23.316;2023-04-30T04:36:07;7.40;;;6.00;;
10715;SDS011;5409;42.620;23.316;2023-04-30T04:38:33;8.00;;;6.03;;
10715;SDS011;5409;42.620;23.316;2023-04-30T04:41:00;9.45;;;5.43;;
10715;SDS011;5409;42.620;23.316;2023-04-30T04:43:27;11.13;;;6.47;;
10715;SDS011;5409;42.620;23.316;2023-04-30T04:45:54;7.05;;;5.60;;
10715;SDS011;5409;42.620;23.316;2023-04-30T04:48:20;6.88;;;6.00;;
10715;SDS011;5409;42.620;23.316;2023-04-30T04:50:48;7.78;;;5.60;;
10715;SDS011;5409;42.620;23.316;2023-04-30T04:53:15;9.90;;;5.95;;
10715;SDS011;5409;42.620;23.316;2023-04-30T04:55:42;6.75;;;4.85;;
10715;SDS011;5409;42.620;23.316;2023-04-30T04:58:08;11.27;;;6.07;;
10715;SDS011;5409;42.620;23.316;2023-04-30T05:00:35;7.95;;;5.70;;
10715;SDS011;5409;42.620;23.316;2023-04-30T05:03:02;13.02;;;7.15;;
10715;SDS011;5409;42.620;23.316;2023-04-30T05:05:28;10.70;;;7.90;;
10715;SDS011;5409;42.620;23.316;2023-04-30T05:07:56;11.80;;;8.85;;
10715;SDS011;5409;42.620;23.316;2023-04-30T05:10:23;11.95;;;8.40;;
10715;SDS011;5409;42.620;23.316;2023-04-30T05:12:50;11.77;;;8.52;;
10715;SDS011;5409;42.620;23.316;2023-04-30T05:15:17;15.55;;;8.27;;
10715;SDS011;5409;42.620;23.316;2023-04-30T05:17:43;12.57;;;8.25;;
10715;SDS011;5409;42.620;23.316;2023-04-30T05:20:10;11.70;;;7.95;;
10715;SDS011;5409;42.620;23.316;2023-04-30T05:22:37;11.68;;;8.13;;
10715;SDS011;5409;42.620;23.316;2023-04-30T05:25:06;13.10;;;9.25;;
10715;SDS011;5409;42.620;23.316;2023-04-30T05:27:33;13.75;;;9.02;;
10715;SDS011;5409;42.620;23.316;2023-04-30T05:30:00;11.70;;;8.88;;
10715;SDS011;5409;42.620;23.316;2023-04-30T05:32:27;11.32;;;8.52;;
10715;SDS011;5409;42.620;23.316;2023-04-30T05:34:55;10.30;;;8.23;;
10715;SDS011;5409;42.620;23.316;2023-04-30T05:37:21;11.82;;;7.07;;
10715;SDS011;5409;42.620;23.316;2023-04-30T05:39:48;11.10;;;7.15;;
10715;SDS011;5409;42.620;23.316;2023-04-30T05:42:16;9.82;;;6.68;;
10715;SDS011;5409;42.620;23.316;2023-04-30T05:44:43;7.03;;;6.18;;
10715;SDS011;5409;42.620;23.316;2023-04-30T05:47:10;7.63;;;5.97;;
10715;SDS011;5409;42.620;23.316;2023-04-30T05:49:36;9.35;;;6.53;;
10715;SDS011;5409;42.620;23.316;2023-04-30T05:52:03;8.15;;;6.18;;
10715;SDS011;5409;42.620;23.316;2023-04-30T05:54:30;9.32;;;6.53;;
10715;SDS011;5409;42.620;23.316;2023-04-30T05:56:57;13.20;;;6.13;;
10715;SDS011;5409;42.620;23.316;2023-04-30T05:59:25;10.32;;;6.30;;
10715;SDS011;5409;42.620;23.316;2023-04-30T06:01:52;13.90;;;8.23;;
10715;SDS011;5409;42.620;23.316;2023-04-30T06:04:19;16.90;;;10.85;;
10715;SDS011;5409;42.620;23.316;2023-04-30T06:06:45;14.13;;;10.35;;
10715;SDS011;5409;42.620;23.316;2023-04-30T06:09:12;14.00;;;10.00;;
10715;SDS011;5409;42.620;23.316;2023-04-30T06:11:39;13.73;;;9.02;;
10715;SDS011;5409;42.620;23.316;2023-04-30T06:14:05;16.13;;;9.60;;
10715;SDS011;5409;42.620;23.316;2023-04-30T06:16:33;14.38;;;9.60;;
10715;SDS011;5409;42.620;23.316;2023-04-30T06:19:00;11.40;;;8.48;;
10715;SDS011;5409;42.620;23.316;2023-04-30T06:21:27;14.30;;;8.77;;
10715;SDS011;5409;42.620;23.316;2023-04-30T06:23:54;12.10;;;8.88;;
10715;SDS011;5409;42.620;23.316;2023-04-30T06:26:20;14.05;;;9.00;;
10715;SDS011;5409;42.620;23.316;2023-04-30T06:28:47;14.77;;;9.15;;
10715;SDS011;5409;42.620;23.316;2023-04-30T06:31:14;14.50;;;8.55;;
10715;SDS011;5409;42.620;23.316;2023-04-30T06:33:42;13.10;;;9.10;;
10715;SDS011;5409;42.620;23.316;2023-04-30T06:36:10;10.68;;;8.68;;
10715;SDS011;5409;42.620;23.316;2023-04-30T06:38:37;12.68;;;10.30;;
10715;SDS011;5409;42.620;23.316;2023-04-30T06:41:04;16.08;;;9.38;;
10715;SDS011;5409;42.620;23.316;2023-04-30T06:43:30;12.85;;;9.32;;
10715;SDS011;5409;42.620;23.316;2023-04-30T06:45:57;15.73;;;10.95;;
10715;SDS011;5409;42.620;23.316;2023-04-30T06:48:24;12.27;;;9.38;;
10715;SDS011;5409;42.620;23.316;2023-04-30T06:50:52;15.05;;;9.68;;
10715;SDS011;5409;42.620;23.316;2023-04-30T06:53:18;14.27;;;10.13;;
10715;SDS011;5409;42.620;23.316;2023-04-30T06:55:47;18.10;;;9.82;;
10715;SDS011;5409;42.620;23.316;2023-04-30T06:58:14;11.77;;;9.38;;
10715;SDS011;5409;42.620;23.316;2023-04-30T07:00:41;17.08;;;9.52;;
10715;SDS011;5409;42.620;23.316;2023-04-30T07:03:07;13.00;;;9.05;;
10715;SDS011;5409;42.620;23.316;2023-04-30T07:05:34;13.98;;;9.10;;
10715;SDS011;5409;42.620;23.316;2023-04-30T07:08:03;13.70;;;8.80;;
10715;SDS011;5409;42.620;23.316;2023-04-30T07:10:31;15.95;;;10.00;;
10715;SDS011;5409;42.620;23.316;2023-04-30T07:12:57;16.77;;;10.15;;
10715;SDS011;5409;42.620;23.316;2023-04-30T07:15:24;12.32;;;8.40;;
10715;SDS011;5409;42.620;23.316;2023-04-30T07:17:51;12.65;;;8.90;;
10715;SDS011;5409;42.620;23.316;2023-04-30T07:20:18;11.73;;;7.97;;
10715;SDS011;5409;42.620;23.316;2023-04-30T07:22:44;12.82;;;8.52;;
10715;SDS011;5409;42.620;23.316;2023-04-30T07:25:13;11.75;;;8.57;;
10715;SDS011;5409;42.620;23.316;2023-04-30T07:27:40;10.75;;;7.55;;
10715;SDS011;5409;42.620;23.316;2023-04-30T07:30:07;12.75;;;7.45;;
10715;SDS011;5409;42.620;23.316;2023-04-30T07:32:35;10.80;;;7.35;;
10715;SDS011;5409;42.620;23.316;2023-04-30T07:35:02;7.88;;;6.03;;
10715;SDS011;5409;42.620;23.316;2023-04-30T07:37:30;5.82;;;3.45;;
10715;SDS011;5409;42.620;23.316;2023-04-30T07:39:57;8.82;;;5.93;;
10715;SDS011;5409;42.620;23.316;2023-04-30T07:42:25;10.75;;;6.95;;
10715;SDS011;5409;42.620;23.316;2023-04-30T07:44:51;7.47;;;5.65;;
10715;SDS011;5409;42.620;23.316;2023-04-30T07:47:18;6.65;;;4.57;;
10715;SDS011;5409;42.620;23.316;2023-04-30T07:49:45;8.80;;;5.55;;
10715;SDS011;5409;42.620;23.316;2023-04-30T07:52:12;11.27;;;6.15;;
10715;SDS011;5409;42.620;23.316;2023-04-30T07:54:39;7.18;;;5.63;;
10715;SDS011;5409;42.620;23.316;2023-04-30T07:57:06;4.22;;;3.80;;
10715;SDS011;5409;42.620;23.316;2023-04-30T07:59:34;7.75;;;4.78;;
10715;SDS011;5409;42.620;23.316;2023-04-30T08:02:00;7.43;;;3.70;;
10715;SDS011;5409;42.620;23.316;2023-04-30T08:04:27;7.32;;;3.45;;
10715;SDS011;5409;42.620;23.316;2023-04-30T08:06:54;8.63;;;4.88;;
10715;SDS011;5409;42.620;23.316;2023-04-30T08:09:21;7.13;;;3.85;;
10715;SDS011;5409;42.620;23.316;2023-04-30T08:11:48;4.25;;;3.10;;
10715;SDS011;5409;42.620;23.316;2023-04-30T08:14:14;6.30;;;4.05;;
10715;SDS011;5409;42.620;23.316;2023-04-30T08:16:42;6.70;;;3.72;;
10715;SDS011;5409;42.620;23.316;2023-04-30T08:19:09;7.10;;;4.20;;
10715;SDS011;5409;42.620;23.316;2023-04-30T08:21:36;5.07;;;4.00;;
10715;SDS011;5409;42.620;23.316;2023-04-30T08:24:03;4.35;;;3.75;;
10715;SDS011;5409;42.620;23.316;2023-04-30T08:26:30;7.13;;;4.15;;
10715;SDS011;5409;42.620;23.316;2023-04-30T08:28:57;5.15;;;4.20;;
10715;SDS011;5409;42.620;23.316;2023-04-30T08:31:23;7.05;;;4.35;;
10715;SDS011;5409;42.620;23.316;2023-04-30T08:33:52;8.68;;;4.13;;
10715;SDS011;5409;42.620;23.316;2023-04-30T08:36:18;4.43;;;4.00;;
10715;SDS011;5409;42.620;23.316;2023-04-30T08:38:45;5.95;;;4.13;;
10715;SDS011;5409;42.620;23.316;2023-04-30T08:41:13;3.70;;;3.40;;
10715;SDS011;5409;42.620;23.316;2023-04-30T08:43:40;3.60;;;3.30;;
10715;SDS011;5409;42.620;23.316;2023-04-30T08:46:08;3.60;;;3.30;;
10715;SDS011;5409;42.620;23.316;2023-04-30T08:48:37;3.42;;;3.13;;
10715;SDS011;5409;42.620;23.316;2023-04-30T08:51:05;3.58;;;3.28;;
10715;SDS011;5409;42.620;23.316;2023-04-30T08:53:34;2.83;;;2.63;;
10715;SDS011;5409;42.620;23.316;2023-04-30T08:56:01;4.53;;;2.55;;
10715;SDS011;5409;42.620;23.316;2023-04-30T08:58:29;3.05;;;2.10;;
10715;SDS011;5409;42.620;23.316;2023-04-30T09:00:56;3.08;;;2.55;;
10715;SDS011;5409;42.620;23.316;2023-04-30T09:03:23;5.47;;;3.10;;
10715;SDS011;5409;42.620;23.316;2023-04-30T09:05:50;4.57;;;3.03;;
10715;SDS011;5409;42.620;23.316;2023-04-30T09:08:40;8.50;;;3.47;;
10715;SDS011;5409;42.620;23.316;2023-04-30T09:11:18;3.10;;;2.80;;
10715;SDS011;5409;42.620;23.316;2023-04-30T09:13:47;4.78;;;3.97;;
10715;SDS011;5409;42.620;23.316;2023-04-30T09:16:16;4.25;;;3.05;;
10715;SDS011;5409;42.620;23.316;2023-04-30T09:18:42;5.15;;;3.33;;
10715;SDS011;5409;42.620;23.316;2023-04-30T09:21:09;7.03;;;3.30;;
10715;SDS011;5409;42.620;23.316;2023-04-30T09:23:37;6.07;;;2.88;;
10715;SDS011;5409;42.620;23.316;2023-04-30T09:26:20;3.67;;;3.05;;
10715;SDS011;5409;42.620;23.316;2023-04-30T09:28:54;3.25;;;2.95;;
10715;SDS011;5409;42.620;23.316;2023-04-30T09:31:22;3.45;;;3.15;;
10715;SDS011;5409;42.620;23.316;2023-04-30T09:33:50;4.35;;;3.40;;
10715;SDS011;5409;42.620;23.316;2023-04-30T09:36:17;5.18;;;3.05;;
10715;SDS011;5409;42.620;23.316;2023-04-30T09:38:45;6.18;;;2.95;;
10715;SDS011;5409;42.620;23.316;2023-04-30T09:41:22;4.43;;;3.08;;
10715;SDS011;5409;42.620;23.316;2023-04-30T09:43:50;3.00;;;2.80;;
10715;SDS011;5409;42.620;23.316;2023-04-30T09:46:17;5.70;;;2.80;;
10715;SDS011;5409;42.620;23.316;2023-04-30T09:48:45;2.92;;;2.63;;
10715;SDS011;5409;42.620;23.316;2023-04-30T09:51:13;2.90;;;2.58;;
10715;SDS011;5409;42.620;23.316;2023-04-30T09:53:41;3.88;;;2.25;;
10715;SDS011;5409;42.620;23.316;2023-04-30T09:56:10;2.65;;;2.45;;
10715;SDS011;5409;42.620;23.316;2023-04-30T09:58:39;3.05;;;2.50;;
10715;SDS011;5409;42.620;23.316;2023-04-30T10:01:09;2.80;;;2.42;;
10715;SDS011;5409;42.620;23.316;2023-04-30T10:03:36;3.85;;;2.53;;
10715;SDS011;5409;42.620;23.316;2023-04-30T10:06:05;3.03;;;2.42;;
10715;SDS011;5409;42.620;23.316;2023-04-30T10:08:34;3.75;;;2.70;;
10715;SDS011;5409;42.620;23.316;2023-04-30T10:11:06;5.82;;;2.75;;
10715;SDS011;5409;42.620;23.316;2023-04-30T10:13:37;3.72;;;2.47;;
10715;SDS011;5409;42.620;23.316;2023-04-30T10:16:10;3.33;;;3.00;;
10715;SDS011;5409;42.620;23.316;2023-04-30T10:18:42;5.82;;;3.08;;
10715;SDS011;5409;42.620;23.316;2023-04-30T10:21:15;3.47;;;3.00;;
10715;SDS011;5409;42.620;23.316;2023-04-30T10:23:43;4.25;;;2.97;;
10715;SDS011;5409;42.620;23.316;2023-04-30T10:26:11;4.03;;;2.78;;
10715;SDS011;5409;42.620;23.316;2023-04-30T10:28:39;3.78;;;2.60;;
10715;SDS011;5409;42.620;23.316;2023-04-30T10:31:06;7.22;;;3.22;;
10715;SDS011;5409;42.620;23.316;2023-04-30T10:33:36;6.07;;;2.78;;
10715;SDS011;5409;42.620;23.316;2023-04-30T10:36:13;3.88;;;3.25;;
10715;SDS011;5409;42.620;23.316;2023-04-30T10:38:47;4.32;;;3.80;;
10715;SDS011;5409;42.620;23.316;2023-04-30T10:41:14;4.72;;;4.10;;
10715;SDS011;5409;42.620;23.316;2023-04-30T10:43:42;6.22;;;5.00;;
10715;SDS011;5409;42.620;23.316;2023-04-30T10:46:09;4.90;;;4.40;;
10715;SDS011;5409;42.620;23.316;2023-04-30T10:48:36;7.47;;;4.88;;
10715;SDS011;5409;42.620;23.316;2023-04-30T10:51:03;7.00;;;4.70;;
10715;SDS011;5409;42.620;23.316;2023-04-30T10:53:30;4.50;;;4.10;;
10715;SDS011;5409;42.620;23.316;2023-04-30T10:55:58;6.35;;;5.22;;
10715;SDS011;5409;42.620;23.316;2023-04-30T10:58:30;5.13;;;4.60;;
10715;SDS011;5409;42.620;23.316;2023-04-30T11:01:00;7.85;;;3.75;;
10715;SDS011;5409;42.620;23.316;2023-04-30T11:03:31;4.65;;;4.13;;
10715;SDS011;5409;42.620;23.316;2023-04-30T11:05:59;5.68;;;3.97;;
10715;SDS011;5409;42.620;23.316;2023-04-30T11:08:33;7.07;;;3.13;;
10715;SDS011;5409;42.620;23.316;2023-04-30T11:11:01;2.08;;;1.98;;
10715;SDS011;5409;42.620;23.316;2023-04-30T11:13:37;3.28;;;1.90;;
10715;SDS011;5409;42.620;23.316;2023-04-30T11:16:06;2.70;;;2.50;;
10715;SDS011;5409;42.620;23.316;2023-04-30T11:18:33;2.85;;;2.55;;
10715;SDS011;5409;42.620;23.316;2023-04-30T11:21:07;2.70;;;2.15;;
10715;SDS011;5409;42.620;23.316;2023-04-30T11:23:34;3.85;;;2.45;;
10715;SDS011;5409;42.620;23.316;2023-04-30T11:26:01;3.67;;;2.97;;
10715;SDS011;5409;42.620;23.316;2023-04-30T11:28:27;2.97;;;2.65;;
10715;SDS011;5409;42.620;23.316;2023-04-30T11:30:55;3.40;;;3.10;;
10715;SDS011;5409;42.620;23.316;2023-04-30T11:33:25;5.72;;;3.10;;
10715;SDS011;5409;42.620;23.316;2023-04-30T11:35:53;3.05;;;2.72;;
10715;SDS011;5409;42.620;23.316;2023-04-30T11:38:21;4.18;;;2.95;;
10715;SDS011;5409;42.620;23.316;2023-04-30T11:40:55;9.20;;;3.53;;
10715;SDS011;5409;42.620;23.316;2023-04-30T11:43:22;7.32;;;3.15;;
10715;SDS011;5409;42.620;23.316;2023-04-30T11:48:44;3.28;;;2.85;;
10715;SDS011;5409;42.620;23.316;2023-04-30T11:51:15;3.17;;;2.40;;
10715;SDS011;5409;42.620;23.316;2023-04-30T11:53:44;2.60;;;2.40;;
10715;SDS011;5409;42.620;23.316;2023-04-30T11:56:12;4.20;;;2.40;;
10715;SDS011;5409;42.620;23.316;2023-04-30T11:58:39;11.05;;;2.85;;
10715;SDS011;5409;42.620;23.316;2023-04-30T12:01:06;4.47;;;2.70;;
10715;SDS011;5409;42.620;23.316;2023-04-30T12:03:39;2.72;;;2.22;;
10715;SDS011;5409;42.620;23.316;2023-04-30T12:06:09;2.83;;;2.60;;
10715;SDS011;5409;42.620;23.316;2023-04-30T12:08:37;2.10;;;1.90;;
10715;SDS011;5409;42.620;23.316;2023-04-30T12:11:04;5.28;;;2.13;;
10715;SDS011;5409;42.620;23.316;2023-04-30T12:13:32;5.80;;;2.15;;
10715;SDS011;5409;42.620;23.316;2023-04-30T12:15:59;4.13;;;2.00;;
10715;SDS011;5409;42.620;23.316;2023-04-30T12:18:27;4.88;;;2.67;;
10715;SDS011;5409;42.620;23.316;2023-04-30T12:20:54;2.85;;;2.58;;
10715;SDS011;5409;42.620;23.316;2023-04-30T12:23:22;4.95;;;3.17;;
10715;SDS011;5409;42.620;23.316;2023-04-30T12:25:49;4.95;;;3.05;;
10715;SDS011;5409;42.620;23.316;2023-04-30T12:28:16;2.58;;;2.38;;
10715;SDS011;5409;42.620;23.316;2023-04-30T12:30:43;3.75;;;2.88;;
10715;SDS011;5409;42.620;23.316;2023-04-30T12:33:10;3.05;;;2.67;;
10715;SDS011;5409;42.620;23.316;2023-04-30T12:35:40;4.50;;;2.60;;
10715;SDS011;5409;42.620;23.316;2023-04-30T12:38:08;3.72;;;2.67;;
10715;SDS011;5409;42.620;23.316;2023-04-30T12:40:36;3.60;;;2.88;;
10715;SDS011;5409;42.620;23.316;2023-04-30T12:43:04;6.75;;;2.60;;
10715;SDS011;5409;42.620;23.316;2023-04-30T12:45:42;3.72;;;2.50;;
10715;SDS011;5409;42.620;23.316;2023-04-30T12:48:13;2.58;;;2.38;;
10715;SDS011;5409;42.620;23.316;2023-04-30T12:50:41;3.20;;;2.50;;
10715;SDS011;5409;42.620;23.316;2023-04-30T12:53:08;5.63;;;2.53;;
10715;SDS011;5409;42.620;23.316;2023-04-30T12:55:36;2.53;;;2.33;;
10715;SDS011;5409;42.620;23.316;2023-04-30T12:58:04;3.15;;;2.60;;
10715;SDS011;5409;42.620;23.316;2023-04-30T13:00:42;4.40;;;2.65;;
10715;SDS011;5409;42.620;23.316;2023-04-30T13:03:09;3.67;;;2.53;;
10715;SDS011;5409;42.620;23.316;2023-04-30T13:05:36;2.75;;;2.33;;
10715;SDS011;5409;42.620;23.316;2023-04-30T13:08:03;2.85;;;2.50;;
10715;SDS011;5409;42.620;23.316;2023-04-30T13:10:30;2.85;;;2.40;;
10715;SDS011;5409;42.620;23.316;2023-04-30T13:12:58;2.78;;;2.38;;
10715;SDS011;5409;42.620;23.316;2023-04-30T13:15:26;2.42;;;2.10;;
10715;SDS011;5409;42.620;23.316;2023-04-30T13:17:52;2.63;;;2.42;;
10715;SDS011;5409;42.620;23.316;2023-04-30T13:20:19;2.40;;;2.20;;
10715;SDS011;5409;42.620;23.316;2023-04-30T13:22:46;2.28;;;2.08;;
10715;SDS011;5409;42.620;23.316;2023-04-30T13:25:13;2.40;;;2.20;;
10715;SDS011;5409;42.620;23.316;2023-04-30T13:27:41;6.78;;;2.85;;
10715;SDS011;5409;42.620;23.316;2023-04-30T13:30:09;6.22;;;2.70;;
10715;SDS011;5409;42.620;23.316;2023-04-30T13:32:36;2.72;;;2.40;;
10715;SDS011;5409;42.620;23.316;2023-04-30T13:35:03;2.30;;;2.13;;
10715;SDS011;5409;42.620;23.316;2023-04-30T13:37:31;3.00;;;2.38;;
10715;SDS011;5409;42.620;23.316;2023-04-30T13:39:59;2.65;;;2.45;;
10715;SDS011;5409;42.620;23.316;2023-04-30T13:42:28;4.10;;;2.35;;
10715;SDS011;5409;42.620;23.316;2023-04-30T13:44:55;4.47;;;2.50;;
10715;SDS011;5409;42.620;23.316;2023-04-30T13:47:23;2.72;;;2.28;;
10715;SDS011;5409;42.620;23.316;2023-04-30T13:49:50;2.88;;;2.45;;
10715;SDS011;5409;42.620;23.316;2023-04-30T13:52:16;7.55;;;2.50;;
10715;SDS011;5409;42.620;23.316;2023-04-30T13:54:43;2.50;;;2.30;;
10715;SDS011;5409;42.620;23.316;2023-04-30T13:57:10;2.88;;;1.63;;
10715;SDS011;5409;42.620;23.316;2023-04-30T13:59:36;2.20;;;2.00;;
10715;SDS011;5409;42.620;23.316;2023-04-30T14:02:03;3.05;;;2.55;;
10715;SDS011;5409;42.620;23.316;2023-04-30T14:04:31;4.47;;;2.35;;
10715;SDS011;5409;42.620;23.316;2023-04-30T14:06:58;5.40;;;3.47;;
10715;SDS011;5409;42.620;23.316;2023-04-30T14:09:26;4.53;;;2.60;;
10715;SDS011;5409;42.620;23.316;2023-04-30T14:11:53;3.38;;;2.50;;
10715;SDS011;5409;42.620;23.316;2023-04-30T14:14:23;2.75;;;2.45;;
10715;SDS011;5409;42.620;23.316;2023-04-30T14:16:49;4.00;;;2.22;;
10715;SDS011;5409;42.620;23.316;2023-04-30T14:19:16;2.20;;;2.00;;
10715;SDS011;5409;42.620;23.316;2023-04-30T14:21:44;3.38;;;2.33;;
10715;SDS011;5409;42.620;23.316;2023-04-30T14:24:11;6.85;;;2.75;;
10715;SDS011;5409;42.620;23.316;2023-04-30T14:26:40;3.03;;;2.15;;
10715;SDS011;5409;42.620;23.316;2023-04-30T14:29:07;3.95;;;2.15;;
10715;SDS011;5409;42.620;23.316;2023-04-30T14:31:34;3.58;;;2.40;;
10715;SDS011;5409;42.620;23.316;2023-04-30T14:34:00;2.22;;;2.03;;
10715;SDS011;5409;42.620;23.316;2023-04-30T14:36:27;3.47;;;2.20;;
10715;SDS011;5409;42.620;23.316;2023-04-30T14:38:55;2.45;;;2.25;;
10715;SDS011;5409;42.620;23.316;2023-04-30T14:41:22;4.85;;;2.35;;
10715;SDS011;5409;42.620;23.316;2023-04-30T14:43:49;3.15;;;2.67;;
10715;SDS011;5409;42.620;23.316;2023-04-30T14:46:16;5.13;;;3.42;;
10715;SDS011;5409;42.620;23.316;2023-04-30T14:48:43;3.25;;;2.80;;
10715;SDS011;5409;42.620;23.316;2023-04-30T14:51:10;2.70;;;1.90;;
10715;SDS011;5409;42.620;23.316;2023-04-30T14:53:37;2.28;;;2.03;;